createdAt,value
2023-03-03T00:01:34.786Z,100965.44
2023-03-03T00:04:37.363Z,100960.66
2023-03-03T00:07:39.874Z,100955.91
2023-03-03T00:10:42.207Z,100953.31
2023-03-03T00:13:49.029Z,100958.41
2023-03-03T00:16:51.422Z,100958.75
2023-03-03T00:19:54.578Z,100954.06
2023-03-03T00:22:58.316Z,100938.09
2023-03-03T00:26:00.970Z,100948.78
2023-03-03T00:29:03.969Z,100947.84
2023-03-03T00:32:26.414Z,100958.84
2023-03-03T00:35:35.847Z,100950.81
2023-03-03T00:38:38.825Z,100949.13
2023-03-03T00:41:41.333Z,100956.63
2023-03-03T00:44:44.788Z,100959.31
2023-03-03T00:47:47.281Z,100963.31
2023-03-03T00:50:50.776Z,100947.38
2023-03-03T00:53:53.202Z,100968.28
2023-03-03T00:56:55.510Z,100970.56
2023-03-03T00:59:58.214Z,100957.94
2023-03-03T01:03:07.055Z,100957.38
2023-03-03T01:06:10.069Z,100941.69
2023-03-03T01:09:12.790Z,100952.31
2023-03-03T01:12:15.401Z,100952.28
2023-03-03T01:15:18.380Z,100949.94
2023-03-03T01:18:21.008Z,100936.31
2023-03-03T01:21:23.758Z,100933.06
2023-03-03T01:24:26.086Z,100936.88
2023-03-03T01:27:28.787Z,100931.88
2023-03-03T01:30:31.708Z,100921.09
2023-03-03T01:33:35.296Z,100914.78
2023-03-03T01:36:37.902Z,100898.19
2023-03-03T01:39:40.217Z,100890.53
2023-03-03T01:42:43.069Z,100885.44
2023-03-03T01:45:48.178Z,100886.66
2023-03-03T01:48:53.038Z,100874.84
2023-03-03T01:51:58.280Z,100894.97
2023-03-03T01:55:15.026Z,100896.00
2023-03-03T01:58:24.299Z,100897.91
2023-03-03T02:01:28.673Z,100901.63
2023-03-03T02:04:32.570Z,100901.88
2023-03-03T02:07:35.474Z,100910.63
2023-03-03T02:10:38.120Z,100900.88
2023-03-03T02:13:40.547Z,100901.28
2023-03-03T02:16:43.440Z,100888.59
2023-03-03T02:20:17.888Z,100881.16
2023-03-03T02:23:26.765Z,100868.94
2023-03-03T02:26:31.433Z,100873.53
2023-03-03T02:29:38.767Z,100820.00
2023-03-03T02:32:42.967Z,100860.44
2023-03-03T02:35:45.432Z,100858.88
2023-03-03T02:39:04.354Z,100860.34
2023-03-03T02:42:09.789Z,100860.25
2023-03-03T02:45:17.673Z,100831.91
2023-03-03T02:48:20.608Z,100858.09
2023-03-03T02:51:23.131Z,100860.81
2023-03-03T02:54:27.228Z,100861.16
2023-03-03T02:57:29.600Z,100866.66
2023-03-03T03:00:32.544Z,100860.59
2023-03-03T03:03:36.438Z,100858.56
2023-03-03T03:06:41.287Z,100856.25
2023-03-03T03:09:44.210Z,100855.91
2023-03-03T03:12:46.604Z,100853.53
2023-03-03T03:15:49.820Z,100847.56
2023-03-03T03:18:52.293Z,100852.47
2023-03-03T03:21:54.640Z,100844.53
2023-03-03T03:24:57.689Z,100837.09
2023-03-03T03:28:01.165Z,100793.38
2023-03-03T03:31:05.059Z,100834.03
2023-03-03T03:34:08.717Z,100838.13
2023-03-03T03:37:11.043Z,100845.50
2023-03-03T03:40:14.368Z,100843.47
2023-03-03T03:43:16.913Z,100836.00
2023-03-03T03:46:19.793Z,100855.44
2023-03-03T03:49:22.341Z,100852.63
2023-03-03T03:52:27.058Z,100826.41
2023-03-03T03:55:30.050Z,100851.78
2023-03-03T03:58:32.568Z,100839.09
2023-03-03T04:01:39.044Z,100843.78
2023-03-03T04:04:41.592Z,100832.94
2023-03-03T04:07:44.101Z,100851.00
2023-03-03T04:10:46.776Z,100849.81
2023-03-03T04:13:49.198Z,100841.13
2023-03-03T04:16:52.059Z,100842.81
2023-03-03T04:19:54.598Z,100798.19
2023-03-03T04:22:58.100Z,100841.31
2023-03-03T04:26:01.687Z,100830.34
2023-03-03T04:29:04.149Z,100838.72
2023-03-03T04:32:06.667Z,100835.09
2023-03-03T04:35:10.422Z,100837.16
2023-03-03T04:38:16.473Z,100844.88
2023-03-03T04:41:19.335Z,100834.66
2023-03-03T04:44:22.400Z,100827.38
2023-03-03T04:47:25.111Z,100829.94
2023-03-03T04:50:28.389Z,100801.13
2023-03-03T04:53:31.003Z,100827.66
2023-03-03T04:56:33.301Z,100806.63
2023-03-03T04:59:36.434Z,100810.78
2023-03-03T05:02:38.938Z,100817.72
2023-03-03T05:05:42.122Z,100825.09
2023-03-03T05:08:44.473Z,100832.28
2023-03-03T05:11:47.184Z,100817.16
2023-03-03T05:14:49.580Z,100825.53
2023-03-03T05:17:53.590Z,100817.41
2023-03-03T05:20:56.179Z,100839.09
2023-03-03T05:23:58.592Z,100841.09
2023-03-03T05:27:01.162Z,100824.25
2023-03-03T05:30:03.599Z,100810.75
2023-03-03T05:33:06.747Z,100833.84
2023-03-03T05:36:09.466Z,100822.41
2023-03-03T05:39:11.883Z,100816.03
2023-03-03T05:42:14.234Z,100814.03
2023-03-03T05:45:16.716Z,100813.03
2023-03-03T05:48:19.205Z,100828.34
2023-03-03T05:51:21.587Z,100831.53
2023-03-03T05:54:23.971Z,100834.84
2023-03-03T05:57:26.296Z,100824.06
2023-03-03T06:00:28.756Z,100835.03
2023-03-03T06:03:31.911Z,100836.50
2023-03-03T06:06:34.433Z,100837.97
2023-03-03T06:09:37.242Z,100837.03
2023-03-03T06:12:41.241Z,100856.97
2023-03-03T06:15:44.015Z,100852.31
2023-03-03T06:18:46.459Z,100878.53
2023-03-03T06:21:48.873Z,100860.72
2023-03-03T06:24:52.726Z,100860.28
2023-03-03T06:27:55.003Z,100878.09
2023-03-03T06:30:57.861Z,100881.72
2023-03-03T06:34:00.248Z,100867.59
2023-03-03T06:37:02.693Z,100881.72
2023-03-03T06:40:06.627Z,100886.84
2023-03-03T06:43:09.915Z,100886.31
2023-03-03T06:46:12.833Z,100878.38
2023-03-03T06:49:15.783Z,100869.84
2023-03-03T06:52:26.917Z,100882.25
2023-03-03T06:55:29.327Z,100890.06
2023-03-03T06:58:32.134Z,100891.19
2023-03-03T07:01:37.876Z,100888.03
2023-03-03T07:04:40.318Z,100902.22
2023-03-03T07:07:43.396Z,100899.03
2023-03-03T07:10:48.700Z,100909.19
2023-03-03T07:13:52.864Z,100916.03
2023-03-03T07:17:02.047Z,100905.97
2023-03-03T07:20:16.178Z,100903.25
2023-03-03T07:23:42.620Z,100913.00
2023-03-03T07:26:45.694Z,100906.22
2023-03-03T07:29:49.969Z,100887.22
2023-03-03T07:32:56.770Z,100899.63
2023-03-03T07:36:00.319Z,100887.22
2023-03-03T07:39:12.260Z,100868.94
2023-03-03T07:42:30.114Z,100895.19
2023-03-03T07:45:44.113Z,100892.31
2023-03-03T07:48:46.791Z,100900.06
2023-03-03T07:51:54.605Z,100903.78
2023-03-03T07:54:58.902Z,100904.66
2023-03-03T07:58:14.925Z,100911.38
2023-03-03T08:01:40.020Z,100908.47
2023-03-03T08:04:47.616Z,100922.41
2023-03-03T08:07:52.877Z,100912.50
2023-03-03T08:10:57.512Z,100912.84
2023-03-03T08:14:00.382Z,100906.03
2023-03-03T08:17:02.859Z,100888.13
2023-03-03T08:20:43.661Z,100916.94
2023-03-03T08:23:46.233Z,100909.44
2023-03-03T08:26:48.645Z,100914.91
2023-03-03T08:29:51.038Z,100899.19
2023-03-03T08:32:53.331Z,100897.16
2023-03-03T08:35:55.712Z,100890.16
2023-03-03T08:38:58.189Z,100889.84
2023-03-03T08:42:00.763Z,100876.09
2023-03-03T08:45:03.156Z,100887.19
2023-03-03T08:48:06.295Z,100888.38
2023-03-03T08:51:08.746Z,100894.16
2023-03-03T08:54:11.170Z,100873.56
2023-03-03T08:57:13.480Z,100883.91
2023-03-03T09:00:17.678Z,100885.31
2023-03-03T09:03:20.152Z,100841.50
2023-03-03T09:06:22.595Z,100867.59
2023-03-03T09:09:25.417Z,100858.69
2023-03-03T09:12:40.579Z,100865.94
2023-03-03T09:15:43.436Z,100862.25
2023-03-03T09:18:45.753Z,100858.28
2023-03-03T09:21:48.209Z,100838.72
2023-03-03T09:24:54.420Z,100853.34
2023-03-03T09:27:56.795Z,100850.56
2023-03-03T09:31:01.522Z,100850.63
2023-03-03T09:34:14.689Z,100868.50
2023-03-03T09:37:32.820Z,100858.28
2023-03-03T09:40:48.477Z,100870.31
2023-03-03T09:44:12.342Z,100863.66
2023-03-03T09:47:33.358Z,100864.03
2023-03-03T09:50:53.991Z,100867.28
2023-03-03T09:54:23.985Z,100863.28
2023-03-03T09:58:10.549Z,100870.16
2023-03-03T10:01:37.628Z,100868.56
2023-03-03T10:05:21.708Z,100862.50
2023-03-03T10:08:31.710Z,100857.47
2023-03-03T10:11:54.667Z,100853.03
2023-03-03T10:15:15.593Z,100859.72
2023-03-03T10:18:32.272Z,100850.19
2023-03-03T10:22:06.861Z,100844.41
2023-03-03T10:25:18.077Z,100844.78
2023-03-03T10:28:32.319Z,100843.31
2023-03-03T10:31:53.968Z,100842.31
2023-03-03T10:35:14.424Z,100851.84
2023-03-03T10:38:22.881Z,100847.09
2023-03-03T10:41:44.647Z,100851.66
2023-03-03T10:45:11.294Z,100849.56
2023-03-03T10:48:22.954Z,100834.72
2023-03-03T10:51:28.139Z,100820.41
2023-03-03T10:54:36.298Z,100826.63
2023-03-03T10:57:44.542Z,100818.56
2023-03-03T11:01:09.775Z,100811.28
2023-03-03T11:04:30.672Z,100803.50
2023-03-03T11:07:45.718Z,100807.19
2023-03-03T11:11:09.975Z,100804.94
2023-03-03T11:14:30.646Z,100805.91
2023-03-03T11:17:53.305Z,100805.09
2023-03-03T11:21:17.029Z,100799.19
2023-03-03T11:24:25.361Z,100795.53
2023-03-03T11:27:55.864Z,100792.16
2023-03-03T11:31:04.046Z,100797.19
2023-03-03T11:34:25.120Z,100791.25
2023-03-03T11:37:38.309Z,100788.34
2023-03-03T11:40:52.534Z,100788.19
2023-03-03T11:44:31.537Z,100785.19
2023-03-03T11:48:00.447Z,100781.13
2023-03-03T11:51:35.850Z,100777.59
2023-03-03T11:54:47.891Z,100772.38
2023-03-03T11:57:57.302Z,100767.47
2023-03-03T12:01:12.062Z,100766.28
2023-03-03T12:04:16.952Z,100780.75
2023-03-03T12:07:28.674Z,100772.38
2023-03-03T12:10:38.852Z,100776.59
2023-03-03T12:13:55.934Z,100775.22
2023-03-03T12:17:11.557Z,100772.22
2023-03-03T12:20:43.136Z,100781.75
2023-03-03T12:24:04.871Z,100776.94
2023-03-03T12:27:15.780Z,100767.25
2023-03-03T12:30:27.712Z,100763.47
2023-03-03T12:34:04.264Z,100766.69
2023-03-03T12:37:37.180Z,100748.25
2023-03-03T12:41:17.045Z,100733.19
2023-03-03T12:44:34.299Z,100729.03
2023-03-03T12:47:49.138Z,100720.38
2023-03-03T12:51:13.208Z,100720.03
2023-03-03T12:54:54.120Z,100720.81
2023-03-03T12:58:25.557Z,100730.97
2023-03-03T13:01:28.667Z,100716.97
2023-03-03T13:04:36.685Z,100718.06
2023-03-03T13:07:46.375Z,100716.69
2023-03-03T13:10:54.892Z,100702.91
2023-03-03T13:14:18.557Z,100704.25
2023-03-03T13:17:26.244Z,100701.88
2023-03-03T13:20:50.683Z,100700.72
2023-03-03T13:24:10.980Z,100697.69
2023-03-03T13:27:20.448Z,100693.63
2023-03-03T13:30:28.552Z,100686.50
2023-03-03T13:33:35.064Z,100682.16
2023-03-03T13:36:52.521Z,100682.06
2023-03-03T13:40:01.765Z,100683.94
2023-03-03T13:43:10.884Z,100691.38
2023-03-03T13:46:21.929Z,100692.22
2023-03-03T13:49:47.712Z,100695.72
2023-03-03T13:53:16.516Z,100681.56
2023-03-03T13:56:36.613Z,100685.97
2023-03-03T13:59:47.893Z,100683.81
2023-03-03T14:03:11.970Z,100674.28
2023-03-03T14:06:19.626Z,100661.47
2023-03-03T14:09:53.049Z,100669.50
2023-03-03T14:13:05.812Z,100657.97
2023-03-03T14:16:13.653Z,100669.53
2023-03-03T14:19:19.724Z,100665.69
2023-03-03T14:22:39.813Z,100657.94
2023-03-03T14:26:13.656Z,100655.09
2023-03-03T14:29:28.171Z,100648.25
2023-03-03T14:32:44.536Z,100658.88
2023-03-03T14:35:59.650Z,100655.94
2023-03-03T14:39:01.858Z,100672.34
2023-03-03T14:42:34.098Z,100651.06
2023-03-03T14:45:39.100Z,100648.81
2023-03-03T14:48:51.837Z,100650.97
2023-03-03T14:51:54.368Z,100647.91
2023-03-03T14:55:05.363Z,100630.00
2023-03-03T14:58:30.619Z,100632.47
2023-03-03T15:01:36.575Z,100637.47
2023-03-03T15:04:39.715Z,100621.25
2023-03-03T15:07:42.090Z,100627.28
2023-03-03T15:10:46.236Z,100605.75
2023-03-03T15:13:48.767Z,100592.06
2023-03-03T15:16:51.169Z,100633.13
2023-03-03T15:20:13.952Z,100624.59
2023-03-03T15:23:34.811Z,100629.69
2023-03-03T15:26:53.722Z,100627.22
2023-03-03T15:30:06.770Z,100612.69
2023-03-03T15:33:24.252Z,100623.16
2023-03-03T15:36:38.784Z,100625.13
2023-03-03T15:40:04.502Z,100623.44
2023-03-03T15:43:10.683Z,100624.66
2023-03-03T15:46:17.665Z,100613.59
2023-03-03T15:49:55.029Z,100603.19
2023-03-03T15:53:23.245Z,100593.97
2023-03-03T15:56:48.194Z,100603.13
2023-03-03T16:00:00.004Z,100598.44
2023-03-03T16:03:17.491Z,100595.09
2023-03-03T16:06:47.701Z,100599.72
2023-03-03T16:10:12.209Z,100600.31
2023-03-03T16:13:29.891Z,100590.63
2023-03-03T16:16:38.392Z,100592.28
2023-03-03T16:19:52.316Z,100580.47
2023-03-03T16:23:32.420Z,100593.16
2023-03-03T16:26:51.665Z,100590.03
2023-03-03T16:30:29.808Z,100590.91
2023-03-03T16:33:45.158Z,100571.28
2023-03-03T16:37:17.034Z,100582.44
2023-03-03T16:40:37.661Z,100584.72
2023-03-03T16:44:01.011Z,100579.75
2023-03-03T16:47:21.962Z,100578.78
2023-03-03T16:50:48.838Z,100584.31
2023-03-03T16:54:02.958Z,100580.81
2023-03-03T16:57:33.566Z,100567.19
2023-03-03T17:00:50.784Z,100590.34
2023-03-03T17:04:03.767Z,100576.84
2023-03-03T17:07:25.677Z,100583.94
2023-03-03T17:10:50.745Z,100581.47
2023-03-03T17:13:55.844Z,100591.13
2023-03-03T17:17:02.530Z,100578.78
2023-03-03T17:20:24.624Z,100576.88
2023-03-03T17:23:42.689Z,100574.19
2023-03-03T17:27:07.108Z,100569.03
2023-03-03T17:30:13.854Z,100561.59
2023-03-03T17:33:29.595Z,100564.31
2023-03-03T17:37:04.354Z,100558.13
2023-03-03T17:40:13.477Z,100568.66
2023-03-03T17:43:20.771Z,100563.69
2023-03-03T17:46:56.424Z,100564.53
2023-03-03T17:50:10.618Z,100557.09
2023-03-03T17:53:16.891Z,100549.03
2023-03-03T17:56:33.081Z,100529.81
2023-03-03T18:00:09.216Z,100523.44
2023-03-03T18:03:41.023Z,100531.06
2023-03-03T18:06:56.733Z,100511.22
2023-03-03T18:10:10.477Z,100497.19
2023-03-03T18:13:31.295Z,100515.75
2023-03-03T18:17:00.490Z,100495.53
2023-03-03T18:20:12.097Z,100505.22
2023-03-03T18:23:34.061Z,100505.88
2023-03-03T18:26:41.812Z,100491.00
2023-03-03T18:30:20.735Z,100482.94
2023-03-03T18:33:43.807Z,100494.09
2023-03-03T18:37:01.423Z,100502.78
2023-03-03T18:40:03.747Z,100492.84
2023-03-03T18:43:43.721Z,100487.69
2023-03-03T18:46:48.705Z,100492.84
2023-03-03T18:49:55.766Z,100482.31
2023-03-03T18:53:22.823Z,100481.94
2023-03-03T18:57:00.686Z,100482.31
2023-03-03T19:00:25.591Z,100470.75
2023-03-03T19:03:33.700Z,100465.41
2023-03-03T19:06:39.081Z,100463.34
2023-03-03T19:10:03.003Z,100459.59
2023-03-03T19:13:32.000Z,100465.81
2023-03-03T19:16:37.578Z,100457.97
2023-03-03T19:20:02.903Z,100460.03
2023-03-03T19:23:07.706Z,100446.19
2023-03-03T19:26:25.268Z,100442.47
2023-03-03T19:29:46.061Z,100436.50
2023-03-03T19:33:00.721Z,100438.56
2023-03-03T19:36:22.168Z,100439.19
2023-03-03T19:40:00.935Z,100435.69
2023-03-03T19:43:05.972Z,100419.97
2023-03-03T19:46:14.086Z,100415.84
2023-03-03T19:49:25.361Z,100413.59
2023-03-03T19:52:41.512Z,100409.88
2023-03-03T19:56:14.556Z,100408.03
2023-03-03T19:59:31.930Z,100394.38
2023-03-03T20:02:47.223Z,100381.59
2023-03-03T20:05:54.349Z,100353.56
2023-03-03T20:09:04.974Z,100397.09
2023-03-03T20:12:07.306Z,100390.28
2023-03-03T20:15:18.995Z,100389.84
2023-03-03T20:18:21.281Z,100399.38
2023-03-03T20:21:42.021Z,100379.97
2023-03-03T20:25:09.455Z,100370.88
2023-03-03T20:28:38.920Z,100360.75
2023-03-03T20:32:12.273Z,100354.31
2023-03-03T20:35:46.102Z,100360.94
2023-03-03T20:39:02.436Z,100345.88
2023-03-03T20:42:10.778Z,100344.00
2023-03-03T20:45:22.044Z,100351.25
2023-03-03T20:48:39.425Z,100357.25
2023-03-03T20:51:49.257Z,100340.72
2023-03-03T20:55:15.291Z,100330.75
2023-03-03T20:58:42.206Z,100339.13
2023-03-03T21:01:57.076Z,100355.28
2023-03-03T21:05:19.864Z,100350.09
2023-03-03T21:08:52.897Z,100335.66
2023-03-03T21:11:55.884Z,100335.88
2023-03-03T21:15:35.811Z,100332.81
2023-03-03T21:18:39.107Z,100335.22
2023-03-03T21:21:45.352Z,100324.31
2023-03-03T21:24:51.907Z,100331.03
2023-03-03T21:27:58.999Z,100325.09
2023-03-03T21:31:08.274Z,100313.38
2023-03-03T21:34:40.483Z,100324.44
2023-03-03T21:37:51.827Z,100312.78
2023-03-03T21:41:01.645Z,100326.97
2023-03-03T21:44:50.064Z,100330.22
2023-03-03T21:47:55.164Z,100327.06
2023-03-03T21:51:00.146Z,100325.13
2023-03-03T21:54:02.493Z,100323.38
2023-03-03T21:57:04.972Z,100319.06
2023-03-03T22:00:12.095Z,100297.69
2023-03-03T22:03:15.523Z,100313.81
2023-03-03T22:06:17.918Z,100302.25
2023-03-03T22:09:20.766Z,100299.84
2023-03-03T22:12:23.105Z,100304.31
2023-03-03T22:15:25.552Z,100292.53
2023-03-03T22:18:27.864Z,100294.81
2023-03-03T22:21:31.089Z,100286.72
2023-03-03T22:24:33.607Z,100266.13
2023-03-03T22:27:35.941Z,100259.59
2023-03-03T22:30:38.404Z,100265.59
2023-03-03T22:33:40.834Z,100266.16
2023-03-03T22:36:43.211Z,100276.44
2023-03-03T22:39:45.616Z,100265.28
2023-03-03T22:42:47.936Z,100255.13
2023-03-03T22:45:50.651Z,100251.25
2023-03-03T22:48:53.212Z,100233.09
2023-03-03T22:51:58.803Z,100206.88
2023-03-03T22:55:01.202Z,100209.13
2023-03-03T22:58:05.479Z,100187.78
2023-03-03T23:01:08.869Z,100206.25
2023-03-03T23:04:11.262Z,100199.69
2023-03-03T23:07:13.615Z,100198.28
2023-03-03T23:10:16.029Z,100193.88
2023-03-03T23:13:18.447Z,100152.28
2023-03-03T23:16:20.914Z,100165.97
2023-03-03T23:19:23.336Z,100154.19
2023-03-03T23:22:25.769Z,100155.56
2023-03-03T23:25:29.046Z,100132.38
2023-03-03T23:28:31.711Z,100119.09
2023-03-03T23:31:34.140Z,100133.13
2023-03-03T23:34:36.628Z,100116.13
2023-03-03T23:37:38.985Z,100097.56
2023-03-03T23:40:42.506Z,100088.00
2023-03-03T23:43:44.914Z,100074.72
2023-03-03T23:46:47.294Z,100073.28
2023-03-03T23:49:49.584Z,100077.22
2023-03-03T23:52:52.287Z,100079.69
2023-03-03T23:55:54.640Z,100070.25
2023-03-03T23:58:56.988Z,100065.84
